Time;durP1;ratioP1;P1;durP2;ratioP2;P2;SDS_P1;SDS_P2;PMS_P1;PMS_P2;Temp;Humidity;BMP_temperature;BMP_pressure;BME280_temperature;BME280_humidity;BME280_pressure;Samples;Min_cycle;Max_cycle;Signal;HPM_P1;HPM_P2
2024/04/11 00:01:54;;;;;;;;;;;5.40;99.90;;;3.80;100.00;99303.75;5433994;26;1831;-69
2024/04/11 00:04:23;;;;;;;;;;;5.30;99.90;;;3.78;100.00;99297.75;5428394;26;1878;-69
2024/04/11 00:06:51;;;;;;;;;;;5.30;99.90;;;3.80;100.00;99303.75;5427138;26;1941;-69
2024/04/11 00:09:18;;;;;;;;;;;5.30;99.90;;;3.87;100.00;99302.97;5431782;26;2221;-69
2024/04/11 00:11:44;;;;;;;;;;;5.30;99.90;;;3.88;100.00;99321.84;5426730;26;1828;-69
2024/04/11 00:14:12;;;;;;;;;;;5.30;99.90;;;3.75;100.00;99313.13;5409044;26;1855;-69
2024/04/11 00:16:38;;;;;;;;;;;5.30;99.90;;;3.54;100.00;99304.28;5431160;26;1858;-68
2024/04/11 00:19:05;;;;;;;;;;;5.20;99.90;;;3.50;100.00;99299.97;5431605;26;1880;-68
2024/04/11 00:21:32;;;;;;;;;;;5.10;99.90;;;3.55;100.00;99305.16;5431856;26;1890;-69
2024/04/11 00:23:59;;;;;;;;;;;5.10;99.90;;;3.65;100.00;99295.84;5429969;26;3914;-69
2024/04/11 00:26:26;;;;;;;;;;;5.10;99.90;;;3.62;100.00;99300.97;5436060;26;1867;-69
2024/04/11 00:28:54;;;;;;;;;;;5.00;99.90;;;3.62;100.00;99299.25;5431715;26;1971;-69
2024/04/11 00:31:20;;;;;;;;;;;5.00;99.90;;;3.62;100.00;99290.69;5427525;26;3105;-69
2024/04/11 00:34:12;;;;;;;;;;;5.10;99.90;;;3.13;100.00;99298.59;5429416;26;1869;-68
2024/04/11 00:36:41;;;;;;;;;;;5.00;99.90;;;3.29;100.00;99299.69;5430323;26;1794;-70
2024/04/11 00:39:09;;;;;;;;;;;4.90;99.90;;;3.31;100.00;99308.25;5430810;26;1880;-69
2024/04/11 00:41:36;;;;;;;;;;;4.90;99.90;;;3.14;100.00;99303.72;5429717;26;2170;-67
2024/04/11 00:44:03;;;;;;;;;;;4.70;99.90;;;3.03;100.00;99309.53;5429768;26;2678;-69
2024/04/11 00:46:30;;;;;;;;;;;4.60;99.90;;;3.18;100.00;99319.19;5429868;26;1914;-69
2024/04/11 00:48:57;;;;;;;;;;;4.60;99.90;;;3.30;100.00;99309.94;5428670;26;1853;-67
2024/04/11 00:51:24;;;;;;;;;;;4.60;99.90;;;3.34;100.00;99314.28;5431736;26;1893;-67
2024/04/11 00:53:53;;;;;;;;;;;4.70;99.90;;;3.07;100.00;99308.75;5437214;26;1757;-68
2024/04/11 00:56:20;;;;;;;;;;;4.60;99.90;;;3.20;100.00;99320.94;5401958;26;1808;-68
2024/04/11 00:58:47;;;;;;;;;;;4.60;99.90;;;3.13;100.00;99317.41;5436066;26;2314;-69
2024/04/11 01:01:14;;;;;;;;;;;4.50;99.90;;;3.08;100.00;99318.16;5430160;26;1838;-69
2024/04/11 01:03:44;;;;;;;;;;;4.50;99.90;;;3.04;100.00;99318.97;5431597;26;1911;-70
2024/04/11 01:06:11;;;;;;;;;;;4.40;99.90;;;3.04;100.00;99322.41;5430068;26;1884;-68
2024/04/11 01:08:38;;;;;;;;;;;4.40;99.90;;;3.01;100.00;99330.06;5432386;26;1896;-70
2024/04/11 01:11:05;;;;;;;;;;;4.20;99.90;;;3.02;100.00;99333.47;5431226;26;1964;-68
2024/04/11 01:13:32;;;;;;;;;;;4.10;99.90;;;2.94;100.00;99335.91;5433374;26;3816;-67
2024/04/11 01:15:59;;;;;;;;;;;4.20;99.90;;;2.93;100.00;99332.47;5431331;26;1635;-68
2024/04/11 01:18:26;;;;;;;;;;;4.20;99.90;;;2.86;100.00;99334.94;5433002;26;1822;-67
2024/04/11 01:20:55;;;;;;;;;;;4.10;99.90;;;2.87;100.00;99340.09;5428907;26;2029;-67
2024/04/11 01:23:22;;;;;;;;;;;4.10;99.90;;;2.83;100.00;99343.44;5437740;26;2108;-69
2024/04/11 01:25:49;;;;;;;;;;;4.20;99.90;;;2.99;100.00;99341.09;5435231;26;2643;-69
2024/04/11 01:28:16;;;;;;;;;;;4.30;99.90;;;2.99;100.00;99344.56;5428556;26;1809;-69
2024/04/11 01:30:43;;;;;;;;;;;4.30;99.90;;;3.02;100.00;99342.03;5427394;26;1891;-69
2024/04/11 01:33:09;;;;;;;;;;;4.30;99.90;;;2.92;100.00;99343.59;5431698;26;1739;-69
2024/04/11 01:35:37;;;;;;;;;;;4.30;99.90;;;3.01;100.00;99334.31;5432268;26;1626;-69
2024/04/11 01:38:05;;;;;;;;;;;4.30;99.90;;;2.99;100.00;99342.00;5423856;26;1623;-69
2024/04/11 01:40:36;;;;;;;;;;;4.40;99.90;;;2.75;100.00;99329.63;5435542;26;2273;-70
2024/04/11 01:43:04;;;;;;;;;;;4.40;99.90;;;2.81;100.00;99339.97;5434007;26;1771;-69
2024/04/11 01:45:32;;;;;;;;;;;4.30;99.90;;;2.74;100.00;99343.28;5430803;26;1845;-69
2024/04/11 01:47:58;;;;;;;;;;;4.30;99.90;;;2.76;100.00;99346.75;5432375;26;1616;-69
2024/04/11 01:50:26;;;;;;;;;;;4.20;99.90;;;2.82;100.00;99351.94;5432133;26;1634;-69
2024/04/11 01:52:54;;;;;;;;;;;4.20;99.90;;;2.79;100.00;99345.94;5431209;26;1579;-69
2024/04/11 01:55:21;;;;;;;;;;;4.20;99.90;;;2.78;100.00;99346.75;5428503;26;3730;-69
2024/04/11 01:57:49;;;;;;;;;;;4.10;99.90;;;2.81;100.00;99349.38;5432354;26;1564;-69
2024/04/11 02:00:16;;;;;;;;;;;4.10;99.90;;;2.85;100.00;99334.06;5433369;26;1682;-69
2024/04/11 02:02:43;;;;;;;;;;;4.20;99.90;;;2.66;100.00;99345.69;5435269;26;1578;-69
2024/04/11 02:05:11;;;;;;;;;;;4.10;99.90;;;2.64;100.00;99347.38;5438706;26;1838;-69
2024/04/11 02:07:38;;;;;;;;;;;4.10;99.90;;;2.75;100.00;99344.16;5437501;26;1584;-69
2024/04/11 02:10:05;;;;;;;;;;;4.10;99.90;;;2.75;100.00;99345.00;5431247;26;2350;-69
2024/04/11 02:12:32;;;;;;;;;;;4.00;99.90;;;2.56;100.00;99355.78;5425481;26;1651;-69
2024/04/11 02:14:59;;;;;;;;;;;4.00;99.90;;;2.64;100.00;99355.06;5439697;26;1656;-69
2024/04/11 02:17:26;;;;;;;;;;;4.00;99.90;;;2.60;100.00;99355.88;5431173;26;1587;-70
2024/04/11 02:19:54;;;;;;;;;;;3.90;99.90;;;2.46;100.00;99352.16;5435218;26;1571;-70
2024/04/11 02:22:20;;;;;;;;;;;3.80;99.90;;;2.33;100.00;99358.78;5433080;26;2691;-68
2024/04/11 02:24:47;;;;;;;;;;;3.70;99.90;;;2.26;100.00;99370.63;5435350;26;1841;-68
2024/04/11 02:27:14;;;;;;;;;;;3.70;99.90;;;2.33;100.00;99378.41;5428395;26;1636;-67
2024/04/11 02:29:41;;;;;;;;;;;3.70;99.90;;;2.42;100.00;99384.59;5433956;26;1619;-68
2024/04/11 02:32:09;;;;;;;;;;;3.80;99.90;;;2.52;100.00;99388.19;5430389;26;1845;-69
2024/04/11 02:34:36;;;;;;;;;;;3.90;99.90;;;2.60;100.00;99388.31;5431982;26;1623;-69
2024/04/11 02:37:06;;;;;;;;;;;3.90;99.90;;;2.51;100.00;99386.47;5435357;26;1541;-69
2024/04/11 02:39:33;;;;;;;;;;;4.00;99.90;;;2.41;100.00;99387.97;5430345;26;4153;-69
2024/04/11 02:42:00;;;;;;;;;;;3.90;99.90;;;2.32;100.00;99377.53;5427332;26;2721;-69
2024/04/11 02:44:27;;;;;;;;;;;3.90;99.90;;;2.36;100.00;99381.03;5431720;26;1580;-69
2024/04/11 02:46:54;;;;;;;;;;;3.80;99.90;;;2.49;100.00;99377.88;5436309;26;1864;-69
2024/04/11 02:49:22;;;;;;;;;;;3.80;99.90;;;2.52;100.00;99385.63;5433543;26;1572;-69
2024/04/11 02:51:51;;;;;;;;;;;3.80;99.90;;;2.39;100.00;99383.66;5432375;26;1682;-68
2024/04/11 02:54:18;;;;;;;;;;;3.90;99.90;;;2.17;100.00;99396.06;5428779;26;2119;-69
2024/04/11 02:56:46;;;;;;;;;;;3.80;99.90;;;2.28;100.00;99404.81;5433079;26;1688;-69
2024/04/11 02:59:13;;;;;;;;;;;3.80;99.90;;;2.25;100.00;99398.75;5435297;26;1619;-69
2024/04/11 03:01:41;;;;;;;;;;;3.80;99.90;;;2.18;100.00;99399.47;5436580;26;1606;-69
2024/04/11 03:04:09;;;;;;;;;;;3.70;99.90;;;1.90;100.00;99400.59;5427670;26;1720;-69
2024/04/11 03:06:37;;;;;;;;;;;3.60;99.90;;;1.68;100.00;99398.41;5437914;26;1841;-69
2024/04/11 03:09:09;;;;;;;;;;;3.50;99.90;;;1.86;100.00;99408.19;5428382;26;2103;-69
2024/04/11 03:11:41;;;;;;;;;;;3.40;99.90;;;2.02;100.00;99411.97;5428446;26;1517;-69
2024/04/11 03:14:08;;;;;;;;;;;3.40;99.90;;;1.96;100.00;99404.16;5430393;26;1606;-69
2024/04/11 03:16:35;;;;;;;;;;;3.50;99.90;;;1.96;100.00;99406.72;5427653;26;1614;-69
2024/04/11 03:19:03;;;;;;;;;;;3.50;99.90;;;2.01;100.00;99402.56;5426359;26;1615;-69
2024/04/11 03:21:30;;;;;;;;;;;3.50;99.90;;;2.02;100.00;99400.84;5407878;26;1632;-69
2024/04/11 03:23:56;;;;;;;;;;;3.50;99.90;;;1.95;100.00;99396.44;5429746;26;4011;-69
2024/04/11 03:26:23;;;;;;;;;;;3.50;99.90;;;1.98;100.00;99404.19;5432908;26;1886;-70
2024/04/11 03:28:50;;;;;;;;;;;3.50;99.90;;;1.93;100.00;99409.19;5432456;26;1737;-69
2024/04/11 03:31:18;;;;;;;;;;;3.40;99.90;;;1.90;100.00;99405.72;5435297;26;1570;-69
2024/04/11 03:33:50;;;;;;;;;;;3.50;99.90;;;1.97;100.00;99408.44;5439422;26;1600;-70
2024/04/11 03:36:19;;;;;;;;;;;3.50;99.90;;;2.01;100.00;99405.13;5432942;26;1594;-70
2024/04/11 03:38:47;;;;;;;;;;;3.50;99.90;;;1.96;100.00;99411.84;5434289;26;1619;-69
2024/04/11 03:41:14;;;;;;;;;;;3.50;99.90;;;1.98;100.00;99415.28;5433767;26;1619;-67
2024/04/11 03:43:41;;;;;;;;;;;3.40;99.90;;;1.91;100.00;99417.69;5438804;26;1515;-69
2024/04/11 03:46:24;;;;;;;;;;;3.50;99.90;;;1.87;100.00;99419.31;5434637;26;1888;-68
2024/04/11 03:48:55;;;;;;;;;;;3.50;99.90;;;1.87;100.00;99419.31;5428399;26;1841;-69
2024/04/11 03:51:38;;;;;;;;;;;3.40;99.90;;;1.86;100.00;99410.75;5425950;26;2236;-69
2024/04/11 03:54:11;;;;;;;;;;;3.40;99.90;;;1.82;100.00;99408.97;5432799;26;1620;-69
2024/04/11 03:56:39;;;;;;;;;;;3.40;99.90;;;1.90;100.00;99421.94;5433874;26;1627;-68
2024/04/11 03:59:06;;;;;;;;;;;3.40;99.90;;;1.90;100.00;99426.22;5429909;26;1595;-69
2024/04/11 04:01:33;;;;;;;;;;;3.40;99.90;;;1.80;100.00;99430.25;5428934;26;1754;-69
2024/04/11 04:04:02;;;;;;;;;;;3.40;99.90;;;1.80;100.00;99414.88;5433866;26;1548;-70
2024/04/11 04:06:33;;;;;;;;;;;3.30;99.90;;;1.71;100.00;99425.81;5436745;26;2656;-69
2024/04/11 04:09:07;;;;;;;;;;;3.30;99.90;;;1.28;100.00;99424.81;5431599;26;1577;-69
2024/04/11 04:11:39;;;;;;;;;;;3.20;99.90;;;1.47;100.00;99426.09;5435788;26;1556;-69
2024/04/11 04:14:12;;;;;;;;;;;3.10;99.90;;;1.59;100.00;99418.69;5432377;26;1606;-69
2024/04/11 04:16:39;;;;;;;;;;;3.10;99.90;;;1.50;100.00;99425.31;5435019;26;1587;-69
2024/04/11 04:19:07;;;;;;;;;;;3.00;99.90;;;1.17;100.00;99427.09;5429153;26;2195;-68
2024/04/11 04:21:35;;;;;;;;;;;2.90;99.90;;;1.30;100.00;99433.38;5435401;26;1643;-69
2024/04/11 04:24:05;;;;;;;;;;;2.70;99.90;;;1.04;100.00;99431.03;5430626;26;1523;-69
2024/04/11 04:26:34;;;;;;;;;;;2.50;99.90;;;1.10;100.00;99435.44;5431944;26;1884;-69
2024/04/11 04:29:03;;;;;;;;;;;2.50;99.90;;;1.14;100.00;99444.03;5434414;26;1641;-69
2024/04/11 04:31:33;;;;;;;;;;;2.40;99.90;;;1.04;100.00;99454.03;5435623;26;1858;-69
2024/04/11 04:34:03;;;;;;;;;;;2.50;99.90;;;1.00;100.00;99452.25;5431430;26;2288;-68
2024/04/11 04:36:34;;;;;;;;;;;2.40;99.90;;;1.12;100.00;99471.28;5430119;26;1578;-69
2024/04/11 04:39:05;;;;;;;;;;;2.50;99.90;;;1.19;100.00;99470.63;5429488;26;2649;-69
2024/04/11 04:41:34;;;;;;;;;;;2.50;99.90;;;1.35;100.00;99477.00;5435794;26;1747;-69
2024/04/11 04:44:02;;;;;;;;;;;2.60;99.90;;;1.44;100.00;99469.53;5432213;26;4417;-70
2024/04/11 04:46:33;;;;;;;;;;;2.70;99.90;;;1.41;100.00;99466.88;5429057;26;1890;-69
2024/04/11 04:49:02;;;;;;;;;;;2.80;99.90;;;1.48;100.00;99468.75;5433010;26;1592;-69
2024/04/11 04:51:32;;;;;;;;;;;2.90;99.90;;;1.58;100.00;99472.44;5427243;26;1630;-69
2024/04/11 04:53:59;;;;;;;;;;;2.90;99.90;;;1.66;100.00;99478.56;5434698;26;1639;-69
2024/04/11 04:56:28;;;;;;;;;;;3.00;99.90;;;1.69;100.00;99476.09;5431847;26;1746;-69
2024/04/11 04:58:55;;;;;;;;;;;3.00;99.90;;;1.71;100.00;99473.56;5450890;26;1629;-69
2024/04/11 05:01:23;;;;;;;;;;;3.10;99.90;;;1.68;100.00;99475.22;5402409;26;1680;-69
2024/04/11 05:03:50;;;;;;;;;;;3.00;99.90;;;1.57;100.00;99473.25;5429552;26;1770;-69
2024/04/11 05:06:18;;;;;;;;;;;2.90;99.90;;;1.51;100.00;99470.56;5430716;26;1889;-69
2024/04/11 05:08:53;;;;;;;;;;;2.80;99.90;;;1.25;100.00;99479.31;5434381;26;1589;-69
2024/04/11 05:11:22;;;;;;;;;;;2.70;99.90;;;1.46;100.00;99478.13;5427244;26;2322;-68
2024/04/11 05:13:50;;;;;;;;;;;2.70;99.90;;;1.55;100.00;99485.13;5452399;26;1497;-69
2024/04/11 05:16:20;;;;;;;;;;;2.80;99.90;;;1.64;100.00;99493.03;5427782;26;1357;-68
2024/04/11 05:18:51;;;;;;;;;;;2.90;99.90;;;1.71;100.00;99488.91;5431983;26;1483;-69
2024/04/11 05:21:23;;;;;;;;;;;3.00;99.90;;;1.91;100.00;99494.50;5432053;26;3934;-69
2024/04/11 05:23:51;;;;;;;;;;;3.10;99.90;;;1.94;100.00;99497.13;5434048;26;2905;-69
2024/04/11 05:26:24;;;;;;;;;;;3.10;99.90;;;1.91;100.00;99499.63;5429409;26;2716;-69
2024/04/11 05:28:53;;;;;;;;;;;3.20;99.90;;;2.00;100.00;99490.44;5426912;26;1414;-69
2024/04/11 05:31:27;;;;;;;;;;;3.20;99.90;;;2.06;100.00;99493.16;5434664;26;1446;-70
2024/04/11 05:33:59;;;;;;;;;;;3.20;99.90;;;1.90;100.00;99490.25;5427990;26;1476;-70
2024/04/11 05:36:30;;;;;;;;;;;3.20;99.90;;;2.03;100.00;99487.09;5431187;26;1574;-69
2024/04/11 05:38:58;;;;;;;;;;;3.10;99.90;;;1.70;100.00;99485.50;5430060;26;1411;-69
2024/04/11 05:41:25;;;;;;;;;;;3.10;99.90;;;1.75;100.00;99494.16;5434204;26;2508;-69
2024/04/11 05:43:54;;;;;;;;;;;3.00;99.90;;;1.84;100.00;99498.63;5437028;26;1464;-69
2024/04/11 05:46:24;;;;;;;;;;;3.00;99.90;;;1.81;100.00;99501.13;5429836;26;1894;-69
2024/04/11 05:48:52;;;;;;;;;;;3.00;99.90;;;1.88;100.00;99496.16;5430654;26;1464;-68
2024/04/11 05:51:21;;;;;;;;;;;3.00;99.90;;;1.98;100.00;99504.06;5433508;26;1452;-68
2024/04/11 05:53:48;;;;;;;;;;;3.00;99.90;;;2.19;100.00;99501.09;5435051;26;1392;-68
2024/04/11 05:56:15;;;;;;;;;;;3.20;99.90;;;2.41;100.00;99500.72;5430519;26;1456;-68
2024/04/11 05:58:45;;;;;;;;;;;3.30;99.90;;;2.43;100.00;99493.09;5431198;26;1547;-68
2024/04/11 06:01:16;;;;;;;;;;;3.50;99.90;;;2.36;100.00;99491.22;5431980;26;1593;-68
2024/04/11 06:03:50;;;;;;;;;;;3.50;99.90;;;2.28;100.00;99496.19;5430723;26;1302;-68
2024/04/11 06:06:21;;;;;;;;;;;3.50;99.90;;;2.58;100.00;99497.66;5428578;26;1837;-68
2024/04/11 06:08:50;;;;;;;;;;;3.60;99.90;;;2.81;100.00;99495.56;5426591;26;1116;-68
2024/04/11 06:11:17;;;;;;;;;;;3.80;99.90;;;2.87;100.00;99490.53;5430580;26;3658;-68
2024/04/11 06:13:46;;;;;;;;;;;3.90;99.90;;;3.02;100.00;99484.84;5425314;26;1126;-68
2024/04/11 06:16:15;;;;;;;;;;;4.10;99.90;;;3.21;100.00;99484.31;5429849;26;1372;-68
2024/04/11 06:18:43;;;;;;;;;;;4.20;99.90;;;3.42;100.00;99476.13;5430854;26;1183;-68
2024/04/11 06:21:12;;;;;;;;;;;4.30;99.90;;;3.41;100.00;99476.97;5420490;26;1115;-68
2024/04/11 06:23:39;;;;;;;;;;;4.40;99.90;;;3.32;100.00;99480.22;5425241;26;1391;-68
2024/04/11 06:26:14;;;;;;;;;;;4.40;99.90;;;3.32;100.00;99484.50;5436521;26;2125;-68
2024/04/11 06:28:44;;;;;;;;;;;4.50;99.90;;;3.39;100.00;99476.06;5425859;26;1533;-69
2024/04/11 06:31:14;;;;;;;;;;;4.60;99.90;;;3.51;100.00;99476.28;5431682;26;1504;-68
2024/04/11 06:33:42;;;;;;;;;;;4.50;99.90;;;3.48;100.00;99471.06;5433095;26;1597;-68
2024/04/11 06:36:10;;;;;;;;;;;4.60;99.90;;;3.52;100.00;99478.00;5431920;26;1488;-68
2024/04/11 06:38:38;;;;;;;;;;;4.70;99.90;;;3.71;100.00;99484.28;5435058;26;2688;-68
2024/04/11 06:41:08;;;;;;;;;;;4.70;99.90;;;3.95;100.00;99478.66;5433282;26;1455;-68
2024/04/11 06:43:37;;;;;;;;;;;5.00;99.90;;;4.13;100.00;99472.91;5420910;26;2655;-69
2024/04/11 06:46:06;;;;;;;;;;;5.10;99.90;;;4.25;100.00;99473.94;5430990;26;1837;-69
2024/04/11 06:48:35;;;;;;;;;;;5.20;99.90;;;4.44;100.00;99470.72;5424838;26;1079;-68
2024/04/11 06:51:06;;;;;;;;;;;5.40;99.90;;;4.79;100.00;99465.16;5424805;26;1668;-68
2024/04/11 06:53:34;;;;;;;;;;;5.40;99.90;;;4.98;100.00;99463.63;5431922;26;1319;-68
2024/04/11 06:56:08;;;;;;;;;;;5.70;99.90;;;5.06;100.00;99458.53;5425823;26;1255;-69
2024/04/11 06:58:36;;;;;;;;;;;5.80;99.90;;;5.17;100.00;99452.66;5431979;26;4093;-68
2024/04/11 07:01:08;;;;;;;;;;;6.00;99.90;;;5.40;100.00;99452.84;5430462;26;1859;-68
2024/04/11 07:03:40;;;;;;;;;;;6.20;99.90;;;5.59;100.00;99447.88;5424231;26;1186;-69
2024/04/11 07:09:03;;;;;;;;;;;6.60;99.90;;;6.14;100.00;99439.66;5435469;26;1593;-68
2024/04/11 07:11:39;;;;;;;;;;;6.90;99.90;;;6.51;100.00;99432.91;5423938;26;1291;-68
2024/04/11 07:14:15;;;;;;;;;;;7.10;99.90;;;6.93;100.00;99422.69;5428239;26;1317;-69
2024/04/11 07:16:44;;;;;;;;;;;7.40;99.90;;;7.24;100.00;99418.44;5421316;26;1170;-69
2024/04/11 07:19:12;;;;;;;;;;;7.80;99.90;;;7.57;100.00;99406.34;5425852;26;1767;-68
2024/04/11 07:21:39;;;;;;;;;;;8.10;99.90;;;7.75;100.00;99394.28;5427569;26;2224;-69
2024/04/11 07:24:06;;;;;;;;;;;8.30;99.90;;;7.86;100.00;99389.06;5427807;26;2839;-68
2024/04/11 07:26:36;;;;;;;;;;;8.40;99.90;;;8.05;100.00;99391.59;5422978;26;1861;-69
2024/04/11 07:29:05;;;;;;;;;;;8.60;99.90;;;8.66;100.00;99390.50;5421388;26;1237;-69
2024/04/11 07:31:33;;;;;;;;;;;8.80;99.90;;;9.16;100.00;99379.78;5417773;26;1183;-69
2024/04/11 07:34:02;;;;;;;;;;;9.20;99.90;;;9.48;100.00;99364.84;5425056;26;1174;-69
2024/04/11 07:36:32;;;;;;;;;;;9.60;99.90;;;9.64;100.00;99358.63;5430025;26;1369;-69
2024/04/11 07:39:01;;;;;;;;;;;10.00;99.90;;;10.08;100.00;99352.09;5428434;26;3838;-69
2024/04/11 07:41:32;;;;;;;;;;;10.20;99.90;;;10.12;100.00;99345.13;5439040;26;1408;-69
2024/04/11 07:44:00;;;;;;;;;;;10.50;99.90;;;10.35;100.00;99342.25;5422733;26;1072;-69
2024/04/11 07:46:33;;;;;;;;;;;10.80;99.90;;;10.40;100.00;99327.47;5420208;26;1849;-68
2024/04/11 07:49:13;;;;;;;;;;;10.90;99.90;;;10.62;100.00;99302.06;5422395;26;1257;-69
2024/04/11 07:51:41;;;;;;;;;;;11.10;99.90;;;10.92;100.00;99298.13;5421875;26;2578;-69
2024/04/11 07:54:13;;;;;;;;;;;11.30;99.90;;;11.10;100.00;99286.56;5436916;26;1083;-69
2024/04/11 07:56:51;;;;;;;;;;;11.50;99.90;;;10.98;100.00;99271.19;5426469;26;1075;-69
2024/04/11 07:59:18;;;;;;;;;;;11.70;99.90;;;11.29;100.00;99267.16;5422435;26;1331;-69
2024/04/11 08:01:45;;;;;;;;;;;11.80;99.90;;;11.68;100.00;99246.47;5430079;26;1555;-69
2024/04/11 08:04:12;;;;;;;;;;;11.90;99.90;;;11.89;100.00;99226.97;5417784;26;1194;-69
2024/04/11 08:06:39;;;;;;;;;;;12.00;99.90;;;12.07;100.00;99211.84;5431626;26;2334;-69
2024/04/11 08:09:07;;;;;;;;;;;12.20;99.90;;;12.68;100.00;99206.91;5425825;26;1110;-69
2024/04/11 08:11:34;;;;;;;;;;;12.50;99.90;;;13.21;100.00;99193.41;5436333;26;1350;-69
2024/04/11 08:14:05;;;;;;;;;;;12.50;99.90;;;13.32;100.00;99187.03;5427870;26;1253;-68
2024/04/11 08:16:33;;;;;;;;;;;12.60;99.90;;;13.93;100.00;99183.50;5430807;26;1321;-69
2024/04/11 08:19:04;;;;;;;;;;;13.10;99.90;;;14.15;100.00;99183.69;5432840;26;4817;-68
2024/04/11 08:21:32;;;;;;;;;;;13.40;99.90;;;14.08;100.00;99166.53;5427441;26;1410;-69
2024/04/11 08:24:02;;;;;;;;;;;13.60;99.80;;;14.47;100.00;99156.53;5421495;26;1513;-68
2024/04/11 08:26:32;;;;;;;;;;;13.90;99.50;;;14.98;100.00;99158.28;5423682;26;1848;-69
2024/04/11 08:29:00;;;;;;;;;;;;;;;15.25;100.00;99158.22;5426254;26;1087;-69
2024/04/11 08:31:29;;;;;;;;;;;15.60;98.50;;;14.92;100.00;99170.75;5430433;26;2231;-69
2024/04/11 08:33:57;;;;;;;;;;;16.40;98.30;;;14.88;100.00;99171.75;5409637;26;1099;-69
2024/04/11 08:36:26;;;;;;;;;;;16.40;95.30;;;16.04;100.00;99161.41;5429013;26;1226;-69
2024/04/11 08:38:55;;;;;;;;;;;16.80;95.40;;;16.26;100.00;99143.03;5435143;26;2879;-70
2024/04/11 08:41:22;;;;;;;;;;;16.80;92.40;;;15.95;100.00;99133.78;5434935;26;1483;-69
2024/04/11 08:43:50;;;;;;;;;;;16.60;92.60;;;15.85;100.00;99142.91;5424152;26;1084;-69
2024/04/11 08:46:17;;;;;;;;;;;16.90;92.50;;;16.21;100.00;99147.59;5437937;26;1316;-69
2024/04/11 08:48:44;;;;;;;;;;;16.70;91.10;;;16.41;100.00;99142.41;5429122;26;1876;-69
2024/04/11 08:51:16;;;;;;;;;;;17.00;91.40;;;16.51;100.00;99138.50;5430102;26;1482;-69
2024/04/11 08:53:45;;;;;;;;;;;16.70;90.50;;;16.09;100.00;99141.09;5428593;26;2283;-69
2024/04/11 08:56:28;;;;;;;;;;;17.00;91.40;;;14.60;100.00;99180.53;5428277;26;1289;-69
2024/04/11 08:58:55;;;;;;;;;;;16.90;90.60;;;15.64;100.00;99160.28;5427512;26;1128;-68
2024/04/11 09:01:23;;;;;;;;;;;16.60;91.10;;;15.35;100.00;99169.19;5437907;26;1741;-69
2024/04/11 09:03:52;;;;;;;;;;;16.70;90.70;;;16.25;100.00;99159.69;5433081;26;1450;-69
2024/04/11 09:06:25;;;;;;;;;;;17.20;91.20;;;16.21;100.00;99151.06;5426083;26;3883;-69
2024/04/11 09:08:53;;;;;;;;;;;17.30;89.90;;;15.76;100.00;99145.88;5426524;26;1845;-69
2024/04/11 09:11:22;;;;;;;;;;;17.60;87.30;;;16.45;100.00;99148.38;5428784;26;1935;-68
2024/04/11 09:13:58;;;;;;;;;;;17.90;88.40;;;16.83;100.00;99145.94;5439478;26;1900;-69
2024/04/11 09:16:28;;;;;;;;;;;18.20;89.40;;;18.04;100.00;99127.31;5439693;26;1462;-69
2024/04/11 09:19:09;;;;;;;;;;;18.20;85.90;;;17.55;100.00;99133.06;5435170;26;1335;-70
2024/04/11 09:21:45;;;;;;;;;;;18.80;84.80;;;19.35;100.00;99103.09;5436246;26;2503;-69
2024/04/11 09:24:16;;;;;;;;;;;19.80;85.70;;;18.26;100.00;99128.91;5432136;26;1365;-69
2024/04/11 09:26:46;;;;;;;;;;;20.00;84.10;;;17.68;100.00;99125.50;5441835;26;1834;-70
2024/04/11 09:29:14;;;;;;;;;;;19.80;84.40;;;15.96;100.00;99156.44;5433869;26;1766;-69
2024/04/11 09:31:42;;;;;;;;;;;19.00;82.70;;;16.77;100.00;99143.56;5434792;26;1567;-70
2024/04/11 09:34:13;;;;;;;;;;;17.60;82.70;;;16.33;100.00;99143.63;5433309;26;1455;-69
2024/04/11 09:36:47;;;;;;;;;;;16.90;81.90;;;15.94;100.00;99160.03;5431659;26;2703;-69
2024/04/11 09:39:45;;;;;;;;;;;16.50;85.60;;;15.94;100.00;99158.25;5435327;26;1482;-69
2024/04/11 09:42:25;;;;;;;;;;;16.20;84.90;;;15.32;100.00;99175.41;5429884;26;1312;-69
2024/04/11 09:44:53;;;;;;;;;;;15.90;86.80;;;14.97;100.00;99174.06;5433346;26;1381;-69
2024/04/11 09:47:34;;;;;;;;;;;15.90;87.40;;;15.21;100.00;99178.44;5432347;26;1857;-68
2024/04/11 09:50:05;;;;;;;;;;;15.80;89.10;;;14.57;100.00;99186.72;5430217;26;3819;-69
2024/04/11 09:52:41;;;;;;;;;;;15.60;88.60;;;14.41;100.00;99195.91;5429669;26;1768;-69
2024/04/11 09:55:08;;;;;;;;;;;15.30;88.60;;;14.87;100.00;99172.66;5424730;26;1575;-69
2024/04/11 09:57:38;;;;;;;;;;;15.40;87.70;;;15.47;100.00;99169.63;5423234;26;1477;-68
2024/04/11 10:00:09;;;;;;;;;;;15.70;90.50;;;15.43;100.00;99165.41;5440423;26;1287;-68
2024/04/11 10:02:39;;;;;;;;;;;15.70;90.10;;;15.59;100.00;99172.69;5400700;26;1483;-69
2024/04/11 10:05:08;;;;;;;;;;;15.90;88.90;;;16.13;100.00;99145.31;5429732;26;2207;-69
2024/04/11 10:07:42;;;;;;;;;;;16.10;88.00;;;16.57;100.00;99147.88;5433570;26;1837;-69
2024/04/11 10:10:19;;;;;;;;;;;16.60;86.90;;;15.78;100.00;99154.53;5421956;26;1135;-69
2024/04/11 10:12:49;;;;;;;;;;;16.30;87.10;;;16.22;100.00;99151.94;5430169;26;1575;-69
2024/04/11 10:15:18;;;;;;;;;;;15.90;87.30;;;15.86;100.00;99157.72;5430799;26;1235;-69
2024/04/11 10:18:10;;;;;;;;;;;16.20;87.70;;;17.39;100.00;99132.06;5433416;26;1463;-69
2024/04/11 10:20:43;;;;;;;;;;;16.40;86.70;;;17.11;100.00;99141.19;5425432;26;2258;-69
2024/04/11 10:23:15;;;;;;;;;;;16.90;88.10;;;16.18;100.00;99153.84;5432804;26;1802;-70
2024/04/11 10:25:49;;;;;;;;;;;16.60;86.90;;;16.41;100.00;99146.81;5425267;26;1581;-69
2024/04/11 10:28:18;;;;;;;;;;;16.90;86.50;;;17.02;100.00;99149.47;5428640;26;1846;-69
2024/04/11 10:30:52;;;;;;;;;;;16.80;86.90;;;16.89;100.00;99133.41;5424093;26;1494;-69
2024/04/11 10:33:29;;;;;;;;;;;16.40;85.20;;;16.75;100.00;99145.38;5434143;26;1588;-69
2024/04/11 10:35:56;;;;;;;;;;;16.50;85.70;;;16.85;100.00;99136.22;5430023;26;4225;-70
2024/04/11 10:38:27;;;;;;;;;;;16.90;87.10;;;16.50;100.00;99149.88;5428726;26;1384;-69
2024/04/11 10:40:56;;;;;;;;;;;16.60;87.30;;;16.18;100.00;99159.06;5425891;26;2721;-69
2024/04/11 10:43:27;;;;;;;;;;;16.00;87.60;;;15.00;100.00;99187.00;5426638;26;2838;-69
2024/04/11 10:45:59;;;;;;;;;;;16.00;89.20;;;15.77;100.00;99179.03;5428137;26;1649;-69
2024/04/11 10:48:25;;;;;;;;;;;15.80;90.00;;;16.41;100.00;99173.00;5431866;26;1837;-69
2024/04/11 10:50:59;;;;;;;;;;;16.30;89.20;;;16.25;100.00;99157.91;5426375;26;1666;-69
2024/04/11 10:53:26;;;;;;;;;;;16.20;86.70;;;17.14;100.00;99159.41;5425193;26;1084;-69
2024/04/11 10:56:20;;;;;;;;;;;16.90;90.00;;;17.40;100.00;99156.53;5432536;26;2322;-69
2024/04/11 10:58:42;;;;;;;;;;;17.40;89.40;;;17.44;100.00;99129.25;5427077;26;1807;-69
2024/04/11 11:01:09;;;;;;;;;;;17.70;86.10;;;17.79;100.00;99146.00;5434953;26;1106;-69
2024/04/11 11:06:24;;;;;;;;;;;18.20;88.90;;;17.57;100.00;99138.25;5437705;26;1508;-69
2024/04/11 11:08:59;;;;;;;;;;;18.00;85.30;;;16.38;100.00;99160.03;5423213;26;2649;-69
2024/04/11 11:11:27;;;;;;;;;;;17.70;85.80;;;16.87;100.00;99156.22;5426334;26;1315;-69
2024/04/11 11:13:55;;;;;;;;;;;17.60;86.00;;;16.96;100.00;99164.63;5431353;26;1712;-69
2024/04/11 11:16:31;;;;;;;;;;;17.80;87.60;;;16.68;100.00;99148.25;5431172;26;1566;-69
2024/04/11 11:18:58;;;;;;;;;;;17.30;84.50;;;16.62;100.00;99156.38;5427458;26;1524;-69
2024/04/11 11:21:32;;;;;;;;;;;17.10;86.90;;;16.73;100.00;99127.94;5436673;26;3688;-69
2024/04/11 11:24:06;;;;;;;;;;;16.70;83.70;;;16.33;100.00;99159.34;5420249;26;2565;-69
2024/04/11 11:26:43;;;;;;;;;;;16.90;89.20;;;16.30;100.00;99137.59;5426259;26;1578;-69
2024/04/11 11:29:11;;;;;;;;;;;16.40;83.00;;;16.28;100.00;99117.63;5424110;26;1849;-69
2024/04/11 11:31:40;;;;;;;;;;;16.50;84.20;;;16.47;100.00;99125.59;5429676;26;1387;-70
2024/04/11 11:34:11;;;;;;;;;;;16.20;83.40;;;16.56;100.00;99125.19;5421195;26;1450;-69
2024/04/11 11:36:44;;;;;;;;;;;16.20;84.60;;;15.96;100.00;99138.09;5393248;26;1694;-70
2024/04/11 11:39:24;;;;;;;;;;;16.30;86.70;;;16.22;100.00;99129.22;5430373;26;2387;-69
2024/04/11 11:42:20;;;;;;;;;;;16.50;85.80;;;15.97;100.00;99145.06;5428552;26;1291;-69
2024/04/11 11:47:35;;;;;;;;;;;16.70;89.20;;;16.46;100.00;99129.97;5426795;26;1845;-69
2024/04/11 11:50:16;;;;;;;;;;;16.80;84.40;;;16.58;100.00;99139.09;5433706;26;1098;-69